Time;durP1;ratioP1;P1;durP2;ratioP2;P2;SDS_P1;SDS_P2;PMS_P1;PMS_P2;Temp;Humidity;BMP_temperature;BMP_pressure;BME280_temperature;BME280_humidity;BME280_pressure;Samples;Min_cycle;Max_cycle;Signal;HPM_P1;HPM_P2
2024/03/15 00:01:32;;;;;;;;;;;;;;;11.91;45.56;98916.18;67505;1282;1016473;-67
2024/03/15 00:04:35;;;;;;;;;;;;;;;11.92;45.47;98912.25;67476;1283;1016287;-68
2024/03/15 00:07:37;;;;;;;;;;;;;;;11.93;45.49;98909.21;67495;1283;1016489;-62
2024/03/15 00:10:40;;;;;;;;;;;;;;;11.85;45.57;98907.14;67506;1282;1018274;-62
2024/03/15 00:13:43;;;;;;;;;;;;;;;11.86;45.56;98904.61;67491;1283;1016225;-68
2024/03/15 00:16:46;;;;;;;;;;;;;;;11.77;45.89;98904.27;67508;1282;1016393;-61
2024/03/15 00:19:48;;;;;;;;;;;;;;;11.74;46.00;98901.67;67492;1282;1016453;-61
2024/03/15 00:22:51;;;;;;;;;;;;;;;12.01;45.22;98896.98;67506;1282;1016446;-62
2024/03/15 00:25:53;;;;;;;;;;;;;;;11.74;45.29;98893.79;67497;1283;1016130;-62
2024/03/15 00:28:56;;;;;;;;;;;;;;;11.51;45.36;98891.54;67477;1282;1016457;-61
2024/03/15 00:31:59;;;;;;;;;;;;;;;11.36;45.60;98888.69;67523;1282;1016220;-68
2024/03/15 00:35:01;;;;;;;;;;;;;;;11.28;45.92;98887.42;67473;1283;1016352;-67
2024/03/15 00:38:04;;;;;;;;;;;;;;;11.26;45.93;98887.02;67479;1282;1016822;-65
2024/03/15 00:41:06;;;;;;;;;;;;;;;11.33;45.83;98880.95;67521;1282;1016470;-67
2024/03/15 00:44:08;;;;;;;;;;;;;;;11.36;45.81;98874.17;67517;1282;1016297;-67
2024/03/15 00:47:12;;;;;;;;;;;;;;;11.41;45.90;98867.05;67498;1283;1016198;-62
2024/03/15 00:50:15;;;;;;;;;;;;;;;11.36;45.96;98870.15;67482;1282;1016454;-67
2024/03/15 00:53:17;;;;;;;;;;;;;;;11.13;46.73;98866.66;67500;1282;1016340;-66
2024/03/15 00:56:20;;;;;;;;;;;;;;;11.20;46.88;98868.16;67492;1283;1016045;-63
2024/03/15 00:59:23;;;;;;;;;;;;;;;11.19;47.18;98867.53;67530;1282;1016239;-65
2024/03/15 01:02:25;;;;;;;;;;;;;;;11.76;46.37;98864.05;67496;1282;1016495;-67
2024/03/15 01:05:28;;;;;;;;;;;;;;;11.83;45.66;98863.07;67496;1283;1016469;-67
2024/03/15 01:08:31;;;;;;;;;;;;;;;11.40;46.39;98861.95;67502;1283;1016512;-65
2024/03/15 01:11:34;;;;;;;;;;;;;;;11.31;46.84;98859.91;67489;1282;1016438;-61
2024/03/15 01:14:36;;;;;;;;;;;;;;;11.15;47.43;98860.05;67486;1283;1016045;-67
2024/03/15 01:17:39;;;;;;;;;;;;;;;11.03;47.38;98859.05;67521;1282;1016814;-64
2024/03/15 01:20:41;;;;;;;;;;;;;;;11.13;46.80;98860.73;67510;1283;1018597;-61
2024/03/15 01:23:44;;;;;;;;;;;;;;;11.70;45.72;98863.40;67515;1283;1016175;-67
2024/03/15 01:26:46;;;;;;;;;;;;;;;11.65;45.47;98858.14;67479;1282;1015739;-67
2024/03/15 01:29:49;;;;;;;;;;;;;;;11.52;45.33;98859.84;67515;1282;1016476;-67
2024/03/15 01:32:51;;;;;;;;;;;;;;;11.64;45.27;98859.57;67536;1283;1016246;-61
2024/03/15 01:35:54;;;;;;;;;;;;;;;11.72;45.26;98858.72;67511;1283;1016449;-66
2024/03/15 01:38:56;;;;;;;;;;;;;;;11.76;45.61;98856.38;67486;1283;1016345;-61
2024/03/15 01:41:59;;;;;;;;;;;;;;;11.62;46.08;98856.58;67486;1282;1016549;-65
2024/03/15 01:45:01;;;;;;;;;;;;;;;11.88;45.66;98853.29;67533;1282;1016562;-61
2024/03/15 01:48:04;;;;;;;;;;;;;;;12.02;45.73;98852.58;67535;1282;1016541;-67
2024/03/15 01:51:07;;;;;;;;;;;;;;;12.12;45.60;98852.99;67498;1283;1016394;-67
2024/03/15 01:54:10;;;;;;;;;;;;;;;12.25;45.25;98853.34;67520;1283;1016339;-67
2024/03/15 01:57:13;;;;;;;;;;;;;;;12.31;45.02;98849.93;67504;1282;1016263;-64
2024/03/15 02:00:18;;;;;;;;;;;;;;;12.19;45.60;98853.02;67533;1283;1016504;-67
2024/03/15 02:03:20;;;;;;;;;;;;;;;11.76;46.49;98851.10;67489;1283;1016405;-62
2024/03/15 02:06:23;;;;;;;;;;;;;;;11.65;46.79;98848.31;67494;1283;1016317;-67
2024/03/15 02:09:28;;;;;;;;;;;;;;;11.86;46.40;98846.06;67541;1282;1017117;-67
2024/03/15 02:12:31;;;;;;;;;;;;;;;11.66;46.76;98851.41;67496;1283;1016374;-62
2024/03/15 02:15:34;;;;;;;;;;;;;;;11.81;46.79;98852.53;67486;1281;1016219;-62
2024/03/15 02:18:38;;;;;;;;;;;;;;;11.72;46.96;98851.70;67499;1282;1016537;-66
2024/03/15 02:21:40;;;;;;;;;;;;;;;11.88;46.56;98852.06;67493;1282;1016325;-67
2024/03/15 02:24:43;;;;;;;;;;;;;;;11.73;46.92;98852.52;67496;1282;1016567;-67
2024/03/15 02:27:45;;;;;;;;;;;;;;;12.34;45.56;98850.11;67506;1283;1016390;-67
2024/03/15 02:30:48;;;;;;;;;;;;;;;12.51;44.98;98849.80;67533;1282;1016864;-67
2024/03/15 02:33:50;;;;;;;;;;;;;;;12.43;45.05;98844.78;67544;1283;1019773;-66
2024/03/15 02:36:53;;;;;;;;;;;;;;;12.23;45.27;98846.27;67475;1282;1016441;-67
2024/03/15 02:39:55;;;;;;;;;;;;;;;11.78;46.43;98844.66;67477;1283;1016298;-64
2024/03/15 02:42:58;;;;;;;;;;;;;;;11.73;46.34;98847.05;67522;1282;1016429;-65
2024/03/15 02:46:00;;;;;;;;;;;;;;;11.77;46.41;98849.46;67489;1283;1016150;-62
2024/03/15 02:49:03;;;;;;;;;;;;;;;11.75;46.66;98850.13;67519;1283;1016031;-63
2024/03/15 02:52:06;;;;;;;;;;;;;;;11.80;46.20;98852.06;67521;1282;1017071;-67
2024/03/15 02:55:08;;;;;;;;;;;;;;;11.69;46.46;98851.21;67498;1282;1016325;-67
2024/03/15 02:58:11;;;;;;;;;;;;;;;11.66;46.41;98855.10;67497;1282;1016427;-64
2024/03/15 03:01:14;;;;;;;;;;;;;;;11.59;46.41;98852.02;67536;1282;1016448;-62
2024/03/15 03:04:18;;;;;;;;;;;;;;;11.50;46.66;98853.64;67493;1282;1016357;-61
2024/03/15 03:07:21;;;;;;;;;;;;;;;11.51;46.51;98855.90;67485;1282;1016381;-63
2024/03/15 03:10:23;;;;;;;;;;;;;;;11.44;46.62;98852.29;67489;1283;1017140;-67
2024/03/15 03:13:26;;;;;;;;;;;;;;;11.36;46.58;98850.68;67523;1282;1018243;-63
2024/03/15 03:16:28;;;;;;;;;;;;;;;11.48;46.68;98848.88;67525;1283;1016195;-65
2024/03/15 03:19:31;;;;;;;;;;;;;;;11.69;45.94;98849.29;67518;1283;1016496;-65
2024/03/15 03:22:33;;;;;;;;;;;;;;;11.86;45.20;98847.64;67494;1282;1016200;-67
2024/03/15 03:25:36;;;;;;;;;;;;;;;11.93;45.25;98849.30;67532;1282;1016407;-65
2024/03/15 03:28:38;;;;;;;;;;;;;;;11.90;45.13;98852.50;67533;1282;1016513;-67
2024/03/15 03:31:41;;;;;;;;;;;;;;;11.75;45.61;98855.23;67495;1282;1016332;-65
2024/03/15 03:34:45;;;;;;;;;;;;;;;11.72;45.68;98855.55;67482;1282;1016044;-66
2024/03/15 03:37:47;;;;;;;;;;;;;;;11.85;45.20;98849.98;67472;1283;1016545;-65
2024/03/15 03:40:50;;;;;;;;;;;;;;;11.30;46.66;98849.70;67507;1282;1018303;-63
2024/03/15 03:43:52;;;;;;;;;;;;;;;11.33;46.51;98847.17;67538;1282;1016484;-63
2024/03/15 03:46:55;;;;;;;;;;;;;;;11.43;46.15;98846.20;67492;1283;1016479;-67
2024/03/15 03:49:57;;;;;;;;;;;;;;;11.53;45.57;98847.16;67501;1283;1016781;-63
2024/03/15 03:53:00;;;;;;;;;;;;;;;11.17;46.61;98852.08;67524;1283;1015740;-61
2024/03/15 03:56:02;;;;;;;;;;;;;;;10.95;47.10;98856.05;67537;1283;1016524;-66
2024/03/15 03:59:05;;;;;;;;;;;;;;;11.30;46.22;98854.73;67519;1282;1016314;-67
2024/03/15 04:02:07;;;;;;;;;;;;;;;11.64;45.63;98850.09;67498;1283;1016264;-67
2024/03/15 04:05:09;;;;;;;;;;;;;;;11.93;45.12;98845.61;67542;1283;1016209;-67
2024/03/15 04:08:12;;;;;;;;;;;;;;;11.93;45.00;98850.70;67533;1283;1016595;-62
2024/03/15 04:11:15;;;;;;;;;;;;;;;11.86;45.09;98850.25;67512;1283;1016352;-67
2024/03/15 04:14:17;;;;;;;;;;;;;;;11.88;44.94;98852.42;67515;1282;1016256;-67
2024/03/15 04:17:20;;;;;;;;;;;;;;;11.73;45.36;98849.35;67541;1283;1018610;-67
2024/03/15 04:20:23;;;;;;;;;;;;;;;11.60;45.42;98855.98;67538;1283;1016504;-62
2024/03/15 04:23:25;;;;;;;;;;;;;;;11.63;45.70;98854.75;67497;1283;1016297;-62
2024/03/15 04:26:28;;;;;;;;;;;;;;;11.71;45.58;98851.44;67519;1282;1016338;-67
2024/03/15 04:29:31;;;;;;;;;;;;;;;11.70;45.59;98849.77;67553;1283;1017003;-61
2024/03/15 04:32:34;;;;;;;;;;;;;;;11.80;45.58;98849.60;67485;1283;1016470;-64
2024/03/15 04:35:37;;;;;;;;;;;;;;;11.68;45.73;98850.79;67520;1283;1017054;-66
2024/03/15 04:38:40;;;;;;;;;;;;;;;11.60;45.70;98849.86;67509;1283;1016320;-67
2024/03/15 04:41:42;;;;;;;;;;;;;;;11.64;45.80;98855.54;67557;1283;1016414;-63
2024/03/15 04:44:45;;;;;;;;;;;;;;;11.55;45.97;98857.16;67555;1283;1016555;-65
2024/03/15 04:47:48;;;;;;;;;;;;;;;11.47;46.06;98859.23;67520;1283;1016460;-67
2024/03/15 04:50:51;;;;;;;;;;;;;;;11.34;46.32;98861.69;67574;1283;1016495;-68
2024/03/15 04:53:54;;;;;;;;;;;;;;;11.33;46.27;98862.98;67507;1283;1016296;-62
2024/03/15 04:56:56;;;;;;;;;;;;;;;11.48;45.99;98868.27;67566;1283;1016472;-67
2024/03/15 04:59:58;;;;;;;;;;;;;;;11.19;46.56;98866.61;67540;1282;1016492;-67
2024/03/15 05:03:01;;;;;;;;;;;;;;;10.62;48.14;98865.92;67563;1282;1016279;-66
2024/03/15 05:06:04;;;;;;;;;;;;;;;10.56;48.55;98867.15;67496;1283;1016359;-67
2024/03/15 05:09:08;;;;;;;;;;;;;;;10.65;48.35;98868.55;67550;1282;1016932;-67
2024/03/15 05:12:12;;;;;;;;;;;;;;;10.90;47.83;98869.86;67504;1282;1016056;-67
2024/03/15 05:15:15;;;;;;;;;;;;;;;10.87;48.33;98868.08;67556;1283;1015815;-67
2024/03/15 05:18:17;;;;;;;;;;;;;;;10.85;48.13;98865.63;67514;1283;1016312;-63
2024/03/15 05:21:20;;;;;;;;;;;;;;;10.85;48.37;98867.50;67534;1283;1016049;-66
2024/03/15 05:24:22;;;;;;;;;;;;;;;11.11;47.80;98870.80;64973;1282;6437835;-62
2024/03/15 05:27:25;;;;;;;;;;;;;;;11.12;48.02;98871.28;67571;1282;1016350;-66
2024/03/15 05:30:27;;;;;;;;;;;;;;;11.46;47.46;98869.35;67519;1283;1016445;-67
2024/03/15 05:33:30;;;;;;;;;;;;;;;11.43;47.81;98872.83;67514;1283;1015967;-66
2024/03/15 05:36:33;;;;;;;;;;;;;;;11.25;47.84;98875.72;67574;1282;1016956;-63
2024/03/15 05:39:36;;;;;;;;;;;;;;;11.24;48.17;98878.59;67538;1282;1016729;-62
2024/03/15 05:42:38;;;;;;;;;;;;;;;11.19;48.10;98873.45;67535;1283;1016424;-67
2024/03/15 05:45:41;;;;;;;;;;;;;;;11.43;47.93;98877.04;67578;1283;1016704;-62
2024/03/15 05:48:43;;;;;;;;;;;;;;;11.97;46.85;98875.67;67577;1283;1016364;-62
2024/03/15 05:51:46;;;;;;;;;;;;;;;12.10;46.49;98876.95;67514;1283;1016047;-67
2024/03/15 05:54:48;;;;;;;;;;;;;;;12.27;46.22;98873.91;67521;1283;1016000;-67
2024/03/15 05:57:50;;;;;;;;;;;;;;;12.18;46.50;98876.77;67548;1283;1016484;-67
2024/03/15 06:00:53;;;;;;;;;;;;;;;12.08;46.60;98877.11;67546;1283;1016211;-66
2024/03/15 06:03:55;;;;;;;;;;;;;;;12.14;46.55;98876.32;67503;1283;1016231;-62
2024/03/15 06:06:58;;;;;;;;;;;;;;;12.34;46.44;98872.20;67545;1283;1017166;-62
2024/03/15 06:10:01;;;;;;;;;;;;;;;12.32;46.55;98876.20;67561;1283;1015921;-63
2024/03/15 06:13:04;;;;;;;;;;;;;;;12.47;46.47;98877.81;67559;1283;1016140;-62
2024/03/15 06:16:10;;;;;;;;;;;;;;;12.46;46.64;98877.17;67551;1282;1016454;-66
2024/03/15 06:19:13;;;;;;;;;;;;;;;12.54;46.65;98880.88;67506;1282;1016443;-63
2024/03/15 06:22:16;;;;;;;;;;;;;;;12.57;46.72;98883.41;67554;1283;1016450;-67
2024/03/15 06:25:19;;;;;;;;;;;;;;;12.77;46.32;98884.02;67503;1283;1016463;-67
2024/03/15 06:28:22;;;;;;;;;;;;;;;12.90;46.07;98884.14;67520;1283;1016781;-67
2024/03/15 06:31:25;;;;;;;;;;;;;;;12.89;46.21;98882.13;67572;1283;1015964;-62
2024/03/15 06:34:31;;;;;;;;;;;;;;;12.57;47.00;98885.20;67528;1282;1016566;-67
2024/03/15 06:37:34;;;;;;;;;;;;;;;12.17;48.43;98889.79;67556;1283;1016389;-62
2024/03/15 06:40:56;;;;;;;;;;;;;;;12.23;48.63;98890.11;67563;1283;1016441;-67
2024/03/15 06:44:09;;;;;;;;;;;;;;;12.33;48.43;98890.64;67518;1283;1018402;-66
2024/03/15 06:47:28;;;;;;;;;;;;;;;12.43;48.48;98894.77;67583;1283;1016348;-63
2024/03/15 06:50:48;;;;;;;;;;;;;;;12.79;48.08;98895.29;67535;1283;1016312;-66
2024/03/15 06:53:51;;;;;;;;;;;;;;;13.39;46.41;98894.05;67580;1282;1016418;-62
2024/03/15 06:56:54;;;;;;;;;;;;;;;13.24;46.94;98899.31;67548;1282;1016520;-66
2024/03/15 06:59:57;;;;;;;;;;;;;;;12.91;47.53;98899.52;67584;1283;1016497;-62
2024/03/15 07:03:00;;;;;;;;;;;;;;;12.94;47.55;98902.48;67557;1283;1016422;-67
2024/03/15 07:06:02;;;;;;;;;;;;;;;12.84;47.90;98900.39;67563;1283;1016505;-62
2024/03/15 07:09:08;;;;;;;;;;;;;;;13.17;47.93;98904.45;67578;1282;1016257;-63
2024/03/15 07:12:14;;;;;;;;;;;;;;;13.44;47.55;98902.73;67538;1282;1016275;-67
2024/03/15 07:15:18;;;;;;;;;;;;;;;13.97;46.30;98902.02;67539;1283;1016527;-67
2024/03/15 07:18:21;;;;;;;;;;;;;;;14.15;45.72;98898.27;67542;1283;1016871;-67
2024/03/15 07:21:23;;;;;;;;;;;;;;;14.28;45.62;98901.55;67553;1283;1016243;-66
2024/03/15 07:24:26;;;;;;;;;;;;;;;14.35;45.60;98899.23;67545;1283;1016768;-62
2024/03/15 07:27:28;;;;;;;;;;;;;;;14.48;45.61;98897.73;67552;1283;1016205;-64
2024/03/15 07:30:31;;;;;;;;;;;;;;;14.65;45.33;98899.43;67550;1282;1016526;-66
2024/03/15 07:33:34;;;;;;;;;;;;;;;14.84;45.14;98899.91;67532;1283;1016450;-65
2024/03/15 07:36:38;;;;;;;;;;;;;;;14.91;44.78;98895.84;67544;1283;1016418;-67
2024/03/15 07:39:41;;;;;;;;;;;;;;;14.94;44.65;98893.73;67565;1283;1016497;-63
2024/03/15 07:42:45;;;;;;;;;;;;;;;14.84;44.87;98894.48;67540;1283;1018316;-65
2024/03/15 07:45:48;;;;;;;;;;;;;;;14.90;44.83;98894.35;67529;1283;1016147;-67
2024/03/15 07:48:50;;;;;;;;;;;;;;;14.84;44.87;98897.30;67521;1283;1016352;-64
2024/03/15 07:51:53;;;;;;;;;;;;;;;14.84;45.23;98898.30;67566;1282;1016284;-66
2024/03/15 07:54:56;;;;;;;;;;;;;;;14.48;45.84;98895.44;67555;1283;1016520;-65
2024/03/15 07:57:58;;;;;;;;;;;;;;;14.19;46.67;98891.08;67538;1283;1016408;-63
2024/03/15 08:01:01;;;;;;;;;;;;;;;14.55;45.97;98891.45;67582;1283;1015982;-63
2024/03/15 08:04:06;;;;;;;;;;;;;;;14.36;47.06;98891.96;67575;1283;1016479;-66
2024/03/15 08:07:09;;;;;;;;;;;;;;;14.75;46.65;98891.50;67588;1283;1016265;-67
2024/03/15 08:10:14;;;;;;;;;;;;;;;15.18;45.98;98893.11;67554;1283;1016009;-65
2024/03/15 08:13:21;;;;;;;;;;;;;;;15.33;45.67;98895.97;67601;1283;1016456;-66
2024/03/15 08:16:33;;;;;;;;;;;;;;;15.32;45.74;98896.58;67542;1283;1015917;-65
2024/03/15 08:19:49;;;;;;;;;;;;;;;15.43;45.91;98898.70;67571;1283;1016430;-63
2024/03/15 08:22:53;;;;;;;;;;;;;;;15.50;45.28;98898.15;67537;1283;1016428;-67
2024/03/15 08:25:58;;;;;;;;;;;;;;;15.92;44.60;98896.69;67540;1283;1016435;-67
2024/03/15 08:29:01;;;;;;;;;;;;;;;16.24;43.88;98896.18;67577;1283;1016035;-65
2024/03/15 08:32:06;;;;;;;;;;;;;;;16.44;43.93;98891.29;67559;1283;1018207;-67
2024/03/15 08:35:13;;;;;;;;;;;;;;;16.38;44.15;98893.04;67533;1283;1016466;-66
2024/03/15 08:38:17;;;;;;;;;;;;;;;16.75;43.23;98894.02;67566;1283;1015997;-67
2024/03/15 08:41:21;;;;;;;;;;;;;;;16.71;43.05;98895.79;67528;1283;1015774;-67
2024/03/15 08:44:23;;;;;;;;;;;;;;;16.76;42.86;98894.15;67611;1283;1016257;-67
2024/03/15 08:47:26;;;;;;;;;;;;;;;16.84;42.85;98897.52;67566;1283;1016281;-63
2024/03/15 08:50:32;;;;;;;;;;;;;;;17.05;42.83;98892.90;67552;1283;1018204;-67
2024/03/15 08:53:35;;;;;;;;;;;;;;;17.40;42.43;98897.16;67540;1282;1016261;-66
2024/03/15 08:56:38;;;;;;;;;;;;;;;17.49;42.13;98897.00;67578;1283;1016531;-64
2024/03/15 08:59:40;;;;;;;;;;;;;;;17.56;41.92;98896.62;67547;1283;1017295;-67
2024/03/15 09:02:43;;;;;;;;;;;;;;;17.70;42.31;98897.85;67527;1283;1016336;-67
2024/03/15 09:05:46;;;;;;;;;;;;;;;17.72;42.31;98895.14;67485;1283;1015829;-63
2024/03/15 09:08:54;;;;;;;;;;;;;;;17.77;42.13;98892.98;67519;1283;1016507;-65
2024/03/15 09:11:57;;;;;;;;;;;;;;;17.92;41.90;98885.98;67505;1283;1017002;-64
2024/03/15 09:15:00;;;;;;;;;;;;;;;18.49;40.54;98887.65;67583;1283;1016145;-66
2024/03/15 09:18:02;;;;;;;;;;;;;;;18.59;40.16;98888.69;67546;1283;1016449;-67
2024/03/15 09:21:06;;;;;;;;;;;;;;;18.76;40.19;98891.35;67565;1282;1016440;-65
2024/03/15 09:24:09;;;;;;;;;;;;;;;18.75;40.15;98894.84;67576;1283;1016429;-67
2024/03/15 09:27:11;;;;;;;;;;;;;;;18.74;40.93;98888.96;67542;1282;1016456;-63
2024/03/15 09:30:17;;;;;;;;;;;;;;;18.90;40.69;98884.75;67573;1283;1016511;-64
2024/03/15 09:33:20;;;;;;;;;;;;;;;19.10;40.38;98883.63;67560;1283;1016460;-63
2024/03/15 09:36:23;;;;;;;;;;;;;;;18.95;39.72;98881.71;67587;1283;1016449;-67
2024/03/15 09:39:29;;;;;;;;;;;;;;;19.01;39.51;98875.05;67598;1283;1016700;-66
2024/03/15 09:42:32;;;;;;;;;;;;;;;19.07;39.76;98876.60;67544;1283;1016463;-66
2024/03/15 09:45:35;;;;;;;;;;;;;;;19.98;39.21;98874.90;67566;1283;1016274;-65
2024/03/15 09:48:39;;;;;;;;;;;;;;;20.13;38.04;98875.20;67589;1283;1015983;-67
2024/03/15 09:51:41;;;;;;;;;;;;;;;20.28;37.93;98879.60;67563;1283;1016437;-64
2024/03/15 09:54:44;;;;;;;;;;;;;;;20.19;37.73;98881.16;67561;1282;1016501;-67
2024/03/15 09:57:46;;;;;;;;;;;;;;;20.06;37.84;98876.41;67581;1283;1016392;-67
2024/03/15 10:00:49;;;;;;;;;;;;;;;19.86;38.14;98871.13;67549;1282;1016450;-68
2024/03/15 10:03:51;;;;;;;;;;;;;;;19.98;38.27;98868.52;67558;1283;1016500;-66
2024/03/15 10:06:54;;;;;;;;;;;;;;;20.27;38.03;98863.15;67603;1283;1015809;-67
2024/03/15 10:09:57;;;;;;;;;;;;;;;20.52;37.53;98856.38;67547;1283;1016518;-65
2024/03/15 10:13:00;;;;;;;;;;;;;;;20.60;37.49;98846.93;67591;1283;1016224;-66
2024/03/15 10:16:04;;;;;;;;;;;;;;;20.74;37.20;98841.02;67561;1283;1016623;-65
2024/03/15 10:19:07;;;;;;;;;;;;;;;20.76;37.14;98838.84;67544;1283;1016400;-63
2024/03/15 10:22:09;;;;;;;;;;;;;;;20.97;37.37;98832.83;67571;1283;1016895;-63
2024/03/15 10:25:13;;;;;;;;;;;;;;;21.12;36.65;98834.63;67592;1283;1016462;-67
2024/03/15 10:28:19;;;;;;;;;;;;;;;21.18;36.82;98831.70;67517;1283;1016148;-64
2024/03/15 10:31:22;;;;;;;;;;;;;;;21.23;36.27;98826.02;48783;1283;2016417;-63
2024/03/15 10:34:25;;;;;;;;;;;;;;;21.28;36.42;98826.73;49519;1283;2016440;-65
2024/03/15 10:37:28;;;;;;;;;;;;;;;21.23;36.14;98822.12;47401;1283;2018888;-67
2024/03/15 10:40:34;;;;;;;;;;;;;;;21.08;36.43;98825.27;48916;1283;2016451;-67
2024/03/15 10:43:36;;;;;;;;;;;;;;;21.31;36.06;98821.24;49650;1283;2017901;-67
2024/03/15 10:46:40;;;;;;;;;;;;;;;21.56;36.33;98821.32;48922;1283;2019598;-66
2024/03/15 10:49:43;;;;;;;;;;;;;;;21.70;35.95;98820.67;51027;1283;2016344;-67
2024/03/15 10:52:46;;;;;;;;;;;;;;;21.82;36.11;98819.79;50428;1283;2019106;-64
2024/03/15 10:55:50;;;;;;;;;;;;;;;22.17;36.19;98813.64;50390;1283;2015972;-67
2024/03/15 10:58:53;;;;;;;;;;;;;;;22.74;35.77;98810.85;49531;1283;2016348;-67
2024/03/15 11:01:55;;;;;;;;;;;;;;;23.04;35.06;98801.57;49641;1283;2015925;-65
2024/03/15 11:04:58;;;;;;;;;;;;;;;23.29;34.78;98800.90;50420;1283;2015753;-67
2024/03/15 11:08:02;;;;;;;;;;;;;;;23.53;34.55;98800.42;49653;1283;2018105;-67
2024/03/15 11:11:06;;;;;;;;;;;;;;;23.55;33.97;98796.80;48906;1283;2016070;-67
2024/03/15 11:14:10;;;;;;;;;;;;;;;23.52;33.89;98795.24;51158;1283;2016432;-63
2024/03/15 11:17:13;;;;;;;;;;;;;;;23.78;33.73;98791.88;51161;1283;2015919;-67
2024/03/15 11:20:15;;;;;;;;;;;;;;;23.88;33.49;98792.17;48789;1283;2015793;-66
2024/03/15 11:23:19;;;;;;;;;;;;;;;23.88;33.58;98785.89;49664;1283;2015493;-67
2024/03/15 11:26:22;;;;;;;;;;;;;;;23.89;33.98;98782.57;48013;1283;2016421;-64
2024/03/15 11:29:25;;;;;;;;;;;;;;;24.14;33.38;98782.28;50399;1283;2017084;-67
2024/03/15 11:32:29;;;;;;;;;;;;;;;24.14;33.71;98776.42;50408;1283;2016036;-67
2024/03/15 11:35:32;;;;;;;;;;;;;;;24.34;33.61;98771.36;50410;1283;2016841;-67
2024/03/15 11:38:34;;;;;;;;;;;;;;;24.61;33.01;98768.75;50419;1283;2016386;-67
2024/03/15 11:41:37;;;;;;;;;;;;;;;24.54;32.75;98761.63;60802;1283;2015726;-67
2024/03/15 11:44:39;;;;;;;;;;;;;;;24.72;33.15;98760.65;67586;1283;1016468;-66
2024/03/15 11:47:41;;;;;;;;;;;;;;;24.95;33.27;98761.35;67539;1283;1016369;-67
2024/03/15 11:50:44;;;;;;;;;;;;;;;25.13;33.13;98756.66;67517;1283;1016411;-66
2024/03/15 11:53:47;;;;;;;;;;;;;;;24.87;32.27;98755.02;67542;1283;1016291;-64
2024/03/15 11:56:57;;;;;;;;;;;;;;;24.71;32.34;98750.84;67559;1283;1016238;-65
2024/03/15 12:00:00;;;;;;;;;;;;;;;24.92;32.82;98749.36;67547;1283;1016255;-66
2024/03/15 12:03:02;;;;;;;;;;;;;;;24.93;31.94;98747.46;67513;1283;1016046;-67
2024/03/15 12:06:07;;;;;;;;;;;;;;;24.79;31.59;98745.10;67540;1283;1016616;-67
2024/03/15 12:09:12;;;;;;;;;;;;;;;24.68;31.62;98744.44;67576;1283;1016643;-67
2024/03/15 12:12:15;;;;;;;;;;;;;;;24.78;31.63;98740.02;67566;1283;1016241;-64
2024/03/15 12:15:18;;;;;;;;;;;;;;;24.86;32.04;98739.90;67530;1283;1016522;-67
2024/03/15 12:18:20;;;;;;;;;;;;;;;24.90;32.01;98740.23;67522;1283;1016322;-67
2024/03/15 12:21:23;;;;;;;;;;;;;;;24.23;32.57;98735.04;67521;1283;1016686;-67
2024/03/15 12:24:25;;;;;;;;;;;;;;;24.16;32.51;98726.74;67578;1283;1016412;-67
2024/03/15 12:27:27;;;;;;;;;;;;;;;24.02;32.92;98724.79;67549;1283;1016152;-67
2024/03/15 12:30:30;;;;;;;;;;;;;;;24.26;33.10;98723.91;67534;1283;1016487;-67
2024/03/15 12:33:32;;;;;;;;;;;;;;;24.50;32.72;98721.44;67517;1282;1017122;-67
2024/03/15 12:36:35;;;;;;;;;;;;;;;24.44;32.81;98715.51;67556;1283;1016448;-67
2024/03/15 12:39:38;;;;;;;;;;;;;;;24.36;32.79;98712.71;67544;1283;1016283;-64
2024/03/15 12:42:40;;;;;;;;;;;;;;;24.30;33.13;98714.52;67535;1283;1019408;-66
2024/03/15 12:45:43;;;;;;;;;;;;;;;24.35;32.52;98715.10;67534;1283;1016471;-67
2024/03/15 12:48:45;;;;;;;;;;;;;;;24.41;32.19;98712.16;67550;1283;1016482;-66
2024/03/15 12:51:48;;;;;;;;;;;;;;;24.69;32.05;98714.25;67536;1283;1016509;-67
2024/03/15 12:54:50;;;;;;;;;;;;;;;24.82;31.75;98710.27;67520;1283;1018671;-67
2024/03/15 12:57:53;;;;;;;;;;;;;;;24.77;32.11;98709.56;67531;1283;1016504;-67
2024/03/15 13:00:55;;;;;;;;;;;;;;;24.64;31.88;98703.45;67550;1283;1016511;-66
2024/03/15 13:03:58;;;;;;;;;;;;;;;24.43;32.00;98706.47;67571;1283;1016274;-66
2024/03/15 13:07:00;;;;;;;;;;;;;;;24.42;31.51;98700.96;67545;1283;1016450;-67
2024/03/15 13:10:03;;;;;;;;;;;;;;;24.47;31.69;98699.63;67507;1283;1015927;-64
2024/03/15 13:13:05;;;;;;;;;;;;;;;24.38;31.79;98691.19;67551;1283;1016246;-67
2024/03/15 13:16:08;;;;;;;;;;;;;;;24.31;32.06;98689.77;67561;1283;1016480;-66
2024/03/15 13:19:10;;;;;;;;;;;;;;;24.38;32.20;98689.40;67523;1283;1016138;-66
2024/03/15 13:22:13;;;;;;;;;;;;;;;24.60;31.79;98685.55;67520;1283;1016303;-67
2024/03/15 13:25:15;;;;;;;;;;;;;;;24.58;31.46;98685.59;67537;1283;1016406;-67
2024/03/15 13:28:18;;;;;;;;;;;;;;;24.40;31.48;98685.27;67538;1283;1016414;-64
2024/03/15 13:31:21;;;;;;;;;;;;;;;24.45;31.62;98680.96;67544;1283;1016935;-66
2024/03/15 13:34:24;;;;;;;;;;;;;;;24.65;31.68;98679.78;67521;1283;1016421;-67
2024/03/15 13:37:27;;;;;;;;;;;;;;;24.70;31.84;98682.05;67517;1283;1016414;-65
2024/03/15 13:40:30;;;;;;;;;;;;;;;24.63;31.40;98684.42;67551;1283;1016447;-66
2024/03/15 13:43:32;;;;;;;;;;;;;;;24.53;31.36;98684.08;67513;1283;1016504;-67
2024/03/15 13:46:35;;;;;;;;;;;;;;;24.44;31.44;98679.02;67494;1283;1016166;-67
2024/03/15 13:49:37;;;;;;;;;;;;;;;24.19;31.93;98680.46;67498;1283;1016770;-67
2024/03/15 13:52:40;;;;;;;;;;;;;;;24.11;32.10;98681.41;67538;1283;1016875;-67
2024/03/15 13:55:43;;;;;;;;;;;;;;;24.25;31.83;98676.70;67508;1283;1016470;-67
2024/03/15 13:58:46;;;;;;;;;;;;;;;24.16;31.81;98676.30;67554;1283;1016429;-67
2024/03/15 14:01:48;;;;;;;;;;;;;;;24.28;31.86;98676.33;67526;1283;1016145;-67
2024/03/15 14:04:51;;;;;;;;;;;;;;;24.22;32.07;98675.33;67500;1283;1016459;-67
2024/03/15 14:07:54;;;;;;;;;;;;;;;24.13;31.98;98674.93;67525;1283;1016433;-67
2024/03/15 14:10:56;;;;;;;;;;;;;;;24.08;32.08;98671.03;67545;1283;1018283;-67
2024/03/15 14:14:00;;;;;;;;;;;;;;;24.01;31.84;98671.88;67490;1283;1017466;-67
2024/03/15 14:17:02;;;;;;;;;;;;;;;24.03;32.09;98671.52;67527;1282;1016491;-66
2024/03/15 14:20:05;;;;;;;;;;;;;;;24.01;31.70;98670.84;67513;1283;1015867;-64
2024/03/15 14:23:07;;;;;;;;;;;;;;;23.80;31.80;98670.84;67504;1283;1016323;-65
2024/03/15 14:26:10;;;;;;;;;;;;;;;23.60;32.25;98672.79;67538;1283;1016567;-65
2024/03/15 14:29:15;;;;;;;;;;;;;;;23.42;32.19;98672.40;67508;1283;1016994;-67
2024/03/15 14:32:18;;;;;;;;;;;;;;;23.26;32.50;98669.25;67528;1283;1016189;-64
2024/03/15 14:35:21;;;;;;;;;;;;;;;23.23;32.71;98666.48;67513;1283;1016555;-67
2024/03/15 14:38:25;;;;;;;;;;;;;;;23.17;32.69;98666.34;67516;1283;1016424;-67
2024/03/15 14:41:28;;;;;;;;;;;;;;;23.09;32.63;98665.60;67538;1283;1016254;-64
2024/03/15 14:44:30;;;;;;;;;;;;;;;23.06;32.75;98666.55;67529;1283;1016336;-67
2024/03/15 14:47:33;;;;;;;;;;;;;;;23.09;32.80;98663.00;67511;1283;1017444;-64
2024/03/15 14:50:36;;;;;;;;;;;;;;;23.13;32.74;98660.39;67513;1282;1016320;-64
2024/03/15 14:53:39;;;;;;;;;;;;;;;23.15;32.83;98655.20;67478;1282;1016424;-64
2024/03/15 14:56:41;;;;;;;;;;;;;;;22.96;32.81;98656.27;67484;1282;1016501;-64
2024/03/15 14:59:46;;;;;;;;;;;;;;;22.81;32.91;98654.42;67555;1283;1016366;-67
2024/03/15 15:02:49;;;;;;;;;;;;;;;22.79;32.73;98649.86;67521;1283;1016496;-64
2024/03/15 15:05:51;;;;;;;;;;;;;;;22.67;32.78;98647.29;67472;1283;1016393;-63
2024/03/15 15:08:54;;;;;;;;;;;;;;;22.46;33.07;98643.02;67483;1282;1016505;-63
2024/03/15 15:11:56;;;;;;;;;;;;;;;22.29;33.45;98643.77;67547;1283;1016513;-63
2024/03/15 15:14:58;;;;;;;;;;;;;;;22.23;33.41;98642.58;67510;1283;1016322;-64
2024/03/15 15:18:03;;;;;;;;;;;;;;;22.13;33.46;98641.05;67520;1283;1016975;-66
2024/03/15 15:21:06;;;;;;;;;;;;;;;21.89;33.66;98636.25;67507;1283;1016484;-63
2024/03/15 15:24:09;;;;;;;;;;;;;;;21.78;33.94;98640.15;67532;1283;1016424;-67
2024/03/15 15:27:12;;;;;;;;;;;;;;;21.67;33.98;98643.14;67478;1283;1016389;-66
2024/03/15 15:30:16;;;;;;;;;;;;;;;21.66;34.13;98643.40;67518;1282;1016374;-63